Time;durP1;ratioP1;P1;durP2;ratioP2;P2;SDS_P1;SDS_P2;PMS_P1;PMS_P2;Temp;Humidity;BMP_temperature;BMP_pressure;BME280_temperature;BME280_humidity;BME280_pressure;Samples;Min_cycle;Max_cycle;Signal;HPM_P1;HPM_P2
2022/01/01 00:01:42;;;;;;;11.68;5.47;;;;;;;;;;4988137;28;20057;-68
2022/01/01 00:04:11;;;;;;;8.82;4.32;;;;;;;;;;4986695;28;20142;-68
2022/01/01 00:06:40;;;;;;;11.35;5.82;;;;;;;;;;4987890;28;20126;-68
2022/01/01 00:09:09;;;;;;;11.27;4.57;;;;;;;;;;4988028;28;20085;-68
2022/01/01 00:11:37;;;;;;;6.35;3.95;;;;;;;;;;4987257;28;20042;-68
2022/01/01 00:14:05;;;;;;;7.93;4.32;;;;;;;;;;4988642;28;20069;-67
2022/01/01 00:16:34;;;;;;;9.63;4.45;;;;;;;;;;4987648;28;20050;-67
2022/01/01 00:19:02;;;;;;;7.95;3.70;;;;;;;;;;4988378;28;20078;-68
2022/01/01 00:21:31;;;;;;;9.27;3.65;;;;;;;;;;4984056;28;20108;-68
2022/01/01 00:24:01;;;;;;;6.93;3.10;;;;;;;;;;4988584;28;20042;-67
2022/01/01 00:26:29;;;;;;;7.68;3.20;;;;;;;;;;4989171;28;20125;-68
2022/01/01 00:28:58;;;;;;;8.07;3.78;;;;;;;;;;4989282;28;20084;-69
2022/01/01 00:31:26;;;;;;;6.57;3.28;;;;;;;;;;4988376;28;20129;-69
2022/01/01 00:33:54;;;;;;;6.97;3.10;;;;;;;;;;4988796;28;20046;-69
2022/01/01 00:36:23;;;;;;;5.93;2.88;;;;;;;;;;4989341;28;20114;-69
2022/01/01 00:38:51;;;;;;;4.72;2.72;;;;;;;;;;4988985;28;20126;-68
2022/01/01 00:41:21;;;;;;;6.15;2.38;;;;;;;;;;4989230;28;20128;-69
2022/01/01 00:43:49;;;;;;;4.35;1.92;;;;;;;;;;4987646;28;20081;-69
2022/01/01 00:46:18;;;;;;;4.72;2.60;;;;;;;;;;4988181;28;20061;-68
2022/01/01 00:48:46;;;;;;;4.35;2.33;;;;;;;;;;4988733;28;20046;-67
2022/01/01 00:51:27;;;;;;;4.90;2.60;;;;;;;;;;4985720;28;20148;-67
2022/01/01 00:53:55;;;;;;;6.32;2.40;;;;;;;;;;4987460;28;20570;-67
2022/01/01 00:56:26;;;;;;;6.75;3.13;;;;;;;;;;4989136;28;20146;-67
2022/01/01 00:58:54;;;;;;;3.92;2.08;;;;;;;;;;4989412;28;20125;-68
2022/01/01 01:01:23;;;;;;;6.38;2.53;;;;;;;;;;4986663;28;20528;-70
2022/01/01 01:03:51;;;;;;;3.40;1.75;;;;;;;;;;4987888;28;20127;-68
2022/01/01 01:06:19;;;;;;;4.03;2.15;;;;;;;;;;4988137;28;20133;-67
2022/01/01 01:08:48;;;;;;;4.00;2.13;;;;;;;;;;4987883;28;20520;-68
2022/01/01 01:11:16;;;;;;;4.43;2.40;;;;;;;;;;4983563;28;20137;-68
2022/01/01 01:13:55;;;;;;;5.85;2.05;;;;;;;;;;4986933;28;20109;-67
2022/01/01 01:16:23;;;;;;;4.18;1.95;;;;;;;;;;4986007;28;20038;-68
2022/01/01 01:18:54;;;;;;;3.65;1.95;;;;;;;;;;4989038;28;20047;-68
2022/01/01 01:21:22;;;;;;;4.35;2.22;;;;;;;;;;4989790;28;20100;-68
2022/01/01 01:23:51;;;;;;;3.65;2.08;;;;;;;;;;4991571;28;20151;-67
2022/01/01 01:26:19;;;;;;;4.75;2.15;;;;;;;;;;4985370;28;20141;-67
2022/01/01 01:29:08;;;;;;;5.07;1.78;;;;;;;;;;936783;28;10003838;-68
2022/01/01 01:31:37;;;;;;;3.95;2.03;;;;;;;;;;4989652;28;20304;-69
2022/01/01 01:34:05;;;;;;;4.80;2.10;;;;;;;;;;4991069;28;20054;-67
2022/01/01 01:36:33;;;;;;;3.75;2.00;;;;;;;;;;4987934;28;20055;-68
2022/01/01 01:39:02;;;;;;;4.45;2.30;;;;;;;;;;4987209;28;20054;-67
2022/01/01 01:41:31;;;;;;;4.70;1.88;;;;;;;;;;4987414;28;20137;-67
2022/01/01 01:44:02;;;;;;;4.43;2.17;;;;;;;;;;4987582;28;20457;-69
2022/01/01 01:46:31;;;;;;;5.40;2.28;;;;;;;;;;4987402;28;20450;-68
2022/01/01 01:49:00;;;;;;;4.03;2.20;;;;;;;;;;4988661;28;20351;-68
2022/01/01 01:51:28;;;;;;;3.92;2.08;;;;;;;;;;4988133;28;20093;-67
2022/01/01 01:53:57;;;;;;;6.95;2.50;;;;;;;;;;4988799;28;20399;-67
2022/01/01 01:56:28;;;;;;;5.03;2.28;;;;;;;;;;4988589;28;20053;-67
2022/01/01 01:58:57;;;;;;;5.65;2.33;;;;;;;;;;4990872;28;20186;-67
2022/01/01 02:01:28;;;;;;;3.90;2.28;;;;;;;;;;4987473;28;20145;-67
2022/01/01 02:03:58;;;;;;;5.78;2.65;;;;;;;;;;4990077;28;20513;-67
2022/01/01 02:06:26;;;;;;;4.97;2.55;;;;;;;;;;4990793;28;20089;-67
2022/01/01 02:08:55;;;;;;;3.75;2.15;;;;;;;;;;4990537;28;20488;-67
2022/01/01 02:11:24;;;;;;;8.07;2.42;;;;;;;;;;4980036;28;20054;-69
2022/01/01 02:14:13;;;;;;;5.80;2.50;;;;;;;;;;4990480;28;20513;-67
2022/01/01 02:17:07;;;;;;;4.10;2.40;;;;;;;;;;4987646;28;20479;-67
2022/01/01 02:19:50;;;;;;;5.13;2.55;;;;;;;;;;4990245;28;20046;-67
2022/01/01 02:22:20;;;;;;;5.50;2.63;;;;;;;;;;4989369;28;20042;-67
2022/01/01 02:24:48;;;;;;;6.25;2.08;;;;;;;;;;4989908;28;20125;-67
2022/01/01 02:27:18;;;;;;;4.85;2.30;;;;;;;;;;4989923;28;20133;-68
2022/01/01 02:29:46;;;;;;;4.55;1.98;;;;;;;;;;4984459;28;20074;-67
2022/01/01 02:32:15;;;;;;;4.13;1.85;;;;;;;;;;4989616;28;20079;-67
2022/01/01 02:34:44;;;;;;;6.93;2.13;;;;;;;;;;4990607;28;20145;-67
2022/01/01 02:37:12;;;;;;;3.97;2.20;;;;;;;;;;4989763;28;20058;-67
2022/01/01 02:39:42;;;;;;;5.63;2.17;;;;;;;;;;4985923;28;20562;-67
2022/01/01 02:42:12;;;;;;;4.13;1.92;;;;;;;;;;4989885;28;20152;-67
2022/01/01 02:44:43;;;;;;;3.55;2.03;;;;;;;;;;4989756;28;20092;-67
2022/01/01 02:47:12;;;;;;;6.78;2.17;;;;;;;;;;4990591;28;20050;-68
2022/01/01 02:49:40;;;;;;;4.93;2.20;;;;;;;;;;4987864;28;20125;-67
2022/01/01 02:52:09;;;;;;;3.63;1.98;;;;;;;;;;4989604;28;20473;-67
2022/01/01 02:54:37;;;;;;;4.03;2.05;;;;;;;;;;4990207;28;20050;-68
2022/01/01 02:57:07;;;;;;;3.90;2.80;;;;;;;;;;4989815;28;20038;-67
2022/01/01 02:59:35;;;;;;;3.38;1.83;;;;;;;;;;4987285;28;20134;-67
2022/01/01 03:02:03;;;;;;;4.30;2.05;;;;;;;;;;4981829;28;20074;-67
2022/01/01 03:04:32;;;;;;;5.13;2.85;;;;;;;;;;4988393;28;21305;-67
2022/01/01 03:07:00;;;;;;;5.35;2.38;;;;;;;;;;4989960;28;20077;-67
2022/01/01 03:09:34;;;;;;;5.18;2.10;;;;;;;;;;4989470;28;20129;-67
2022/01/01 03:12:04;;;;;;;7.30;2.50;;;;;;;;;;4989766;28;20407;-67
2022/01/01 03:14:34;;;;;;;4.57;1.60;;;;;;;;;;4989705;28;20050;-67
2022/01/01 03:17:02;;;;;;;10.35;2.85;;;;;;;;;;4989467;28;20054;-67
2022/01/01 03:19:30;;;;;;;4.32;2.35;;;;;;;;;;4982184;28;20104;-67
2022/01/01 03:21:59;;;;;;;3.90;2.22;;;;;;;;;;4989026;28;20325;-67
2022/01/01 03:24:28;;;;;;;7.38;2.35;;;;;;;;;;4989137;28;20051;-67
2022/01/01 03:26:57;;;;;;;4.90;2.40;;;;;;;;;;4989836;28;20046;-67
2022/01/01 03:29:28;;;;;;;3.85;2.20;;;;;;;;;;4989228;28;20149;-67
2022/01/01 03:31:58;;;;;;;3.13;1.92;;;;;;;;;;4984860;28;20051;-67
2022/01/01 03:34:26;;;;;;;3.35;1.98;;;;;;;;;;4925511;28;20136;-67
2022/01/01 03:36:55;;;;;;;3.75;2.10;;;;;;;;;;331414;28;10022898;-67
2022/01/01 03:39:23;;;;;;;5.60;2.00;;;;;;;;;;4989176;28;20105;-67
2022/01/01 03:41:52;;;;;;;3.72;2.42;;;;;;;;;;4987795;28;20046;-67
2022/01/01 03:44:20;;;;;;;4.97;2.60;;;;;;;;;;4988804;28;20062;-67
2022/01/01 03:46:49;;;;;;;3.70;2.00;;;;;;;;;;4990026;28;20138;-67
2022/01/01 03:49:18;;;;;;;4.75;2.15;;;;;;;;;;4989042;28;20398;-67
2022/01/01 03:51:47;;;;;;;6.03;2.03;;;;;;;;;;4985672;28;20133;-67
2022/01/01 03:54:16;;;;;;;3.53;2.00;;;;;;;;;;4980029;28;20476;-67
2022/01/01 03:56:45;;;;;;;4.00;1.80;;;;;;;;;;4989141;28;20486;-69
2022/01/01 03:59:14;;;;;;;3.58;1.77;;;;;;;;;;4992140;28;20209;-67
2022/01/01 04:01:42;;;;;;;5.05;2.05;;;;;;;;;;4992550;28;20050;-68
2022/01/01 04:04:11;;;;;;;6.50;2.67;;;;;;;;;;4988574;28;20141;-67
2022/01/01 04:06:40;;;;;;;4.80;2.10;;;;;;;;;;4992999;28;20046;-67
2022/01/01 04:09:09;;;;;;;5.80;2.30;;;;;;;;;;4993123;28;20052;-67
2022/01/01 04:11:37;;;;;;;6.53;2.90;;;;;;;;;;4992112;28;20088;-67
2022/01/01 04:14:05;;;;;;;5.45;2.30;;;;;;;;;;4993125;28;20078;-67
2022/01/01 04:16:40;;;;;;;4.22;1.95;;;;;;;;;;4993221;28;20093;-68
2022/01/01 04:19:08;;;;;;;4.97;2.15;;;;;;;;;;4993628;28;20138;-67
2022/01/01 04:21:36;;;;;;;5.53;2.38;;;;;;;;;;4992319;28;20049;-68
2022/01/01 04:24:06;;;;;;;6.72;2.50;;;;;;;;;;4991534;28;20097;-68
2022/01/01 04:26:38;;;;;;;6.60;3.15;;;;;;;;;;4991040;28;20082;-68
2022/01/01 04:29:07;;;;;;;5.80;2.63;;;;;;;;;;4992856;28;20046;-67
2022/01/01 04:31:41;;;;;;;5.10;2.30;;;;;;;;;;4991493;28;20051;-68
2022/01/01 04:34:10;;;;;;;4.10;2.17;;;;;;;;;;4992827;28;20127;-67
2022/01/01 04:36:48;;;;;;;6.10;2.53;;;;;;;;;;4991001;28;20081;-69
2022/01/01 04:39:17;;;;;;;2.90;1.73;;;;;;;;;;4992611;28;20064;-67
2022/01/01 04:41:45;;;;;;;4.82;1.92;;;;;;;;;;4991741;28;20133;-67
2022/01/01 04:44:14;;;;;;;5.60;2.13;;;;;;;;;;4989955;28;20736;-67
2022/01/01 04:46:42;;;;;;;4.22;2.33;;;;;;;;;;4989827;28;20129;-67
2022/01/01 04:49:11;;;;;;;7.05;2.10;;;;;;;;;;4992087;28;20065;-66
2022/01/01 04:51:39;;;;;;;2.95;1.88;;;;;;;;;;4991654;28;20125;-67
2022/01/01 04:54:15;;;;;;;5.82;1.58;;;;;;;;;;4991329;28;20072;-67
2022/01/01 04:56:47;;;;;;;4.78;1.75;;;;;;;;;;4991452;28;20490;-66
2022/01/01 04:59:16;;;;;;;4.35;2.13;;;;;;;;;;4991400;28;20431;-67
2022/01/01 05:01:45;;;;;;;8.15;2.00;;;;;;;;;;4983933;28;20081;-67
2022/01/01 05:04:15;;;;;;;7.88;2.40;;;;;;;;;;4991685;28;20056;-66
2022/01/01 05:06:49;;;;;;;3.90;2.15;;;;;;;;;;4991539;28;20065;-67
2022/01/01 05:09:17;;;;;;;3.90;2.50;;;;;;;;;;4990179;28;20541;-67
2022/01/01 05:11:47;;;;;;;4.10;2.38;;;;;;;;;;4991183;28;20137;-66
2022/01/01 05:14:16;;;;;;;6.07;2.55;;;;;;;;;;4991127;28;20133;-66
2022/01/01 05:16:45;;;;;;;7.35;1.98;;;;;;;;;;4986566;28;20125;-66
2022/01/01 05:19:14;;;;;;;3.13;1.63;;;;;;;;;;4988146;28;20081;-66
2022/01/01 05:21:42;;;;;;;3.35;2.25;;;;;;;;;;4991177;28;20052;-67
2022/01/01 05:24:15;;;;;;;4.90;2.08;;;;;;;;;;4989804;28;20601;-67
2022/01/01 05:26:43;;;;;;;7.50;2.20;;;;;;;;;;4991564;28;20328;-67
2022/01/01 05:29:13;;;;;;;6.00;2.15;;;;;;;;;;4989304;28;20133;-67
2022/01/01 05:31:41;;;;;;;3.63;1.88;;;;;;;;;;4989901;28;20089;-67
2022/01/01 05:34:10;;;;;;;3.75;2.10;;;;;;;;;;4991129;28;20121;-67
2022/01/01 05:36:38;;;;;;;4.10;1.70;;;;;;;;;;4983449;28;20050;-67
2022/01/01 05:39:08;;;;;;;5.60;2.53;;;;;;;;;;4990514;28;20050;-67
2022/01/01 05:41:36;;;;;;;3.80;2.10;;;;;;;;;;4990800;28;20124;-67
2022/01/01 05:44:06;;;;;;;;;;;;;;;;;;324211;28;10022600;-67
2022/01/01 05:46:36;;;;;;;4.13;2.08;;;;;;;;;;4972290;28;20586;-67
2022/01/01 05:49:05;;;;;;;4.32;1.90;;;;;;;;;;4969881;28;20051;-68
2022/01/01 05:51:36;;;;;;;4.15;2.17;;;;;;;;;;4966341;28;20058;-68
2022/01/01 05:54:04;;;;;;;5.43;1.85;;;;;;;;;;4971490;28;20069;-68
2022/01/01 05:56:32;;;;;;;4.75;2.00;;;;;;;;;;4975538;28;20137;-69
2022/01/01 05:59:01;;;;;;;4.30;1.90;;;;;;;;;;4970485;28;20053;-68
2022/01/01 06:01:29;;;;;;;5.95;1.98;;;;;;;;;;4968322;28;20063;-68
2022/01/01 06:03:59;;;;;;;6.55;2.03;;;;;;;;;;4970734;28;20129;-68
2022/01/01 06:06:28;;;;;;;4.25;2.05;;;;;;;;;;4969644;28;20050;-68
2022/01/01 06:08:59;;;;;;;4.45;1.90;;;;;;;;;;4974530;28;20399;-68
2022/01/01 06:11:27;;;;;;;3.75;2.00;;;;;;;;;;4973987;28;20130;-67
2022/01/01 06:13:56;;;;;;;4.68;2.00;;;;;;;;;;4968058;28;20082;-67
2022/01/01 06:16:42;;;;;;;4.20;2.17;;;;;;;;;;4968181;28;20585;-67
2022/01/01 06:19:12;;;;;;;4.07;2.05;;;;;;;;;;4964865;28;20101;-67
2022/01/01 06:21:40;;;;;;;4.35;2.10;;;;;;;;;;4970074;28;20823;-67
2022/01/01 06:24:09;;;;;;;6.15;2.25;;;;;;;;;;4969976;28;20074;-67
2022/01/01 06:26:39;;;;;;;3.40;1.80;;;;;;;;;;4961518;28;20055;-67
2022/01/01 06:29:07;;;;;;;4.03;1.35;;;;;;;;;;4969407;28;20134;-67
2022/01/01 06:31:35;;;;;;;3.85;1.92;;;;;;;;;;4965014;28;20451;-67
2022/01/01 06:34:04;;;;;;;2.78;2.00;;;;;;;;;;4970995;28;20079;-67
2022/01/01 06:36:35;;;;;;;3.72;1.80;;;;;;;;;;4970612;28;20059;-68
2022/01/01 06:39:04;;;;;;;4.90;1.90;;;;;;;;;;4968628;28;20042;-67
2022/01/01 06:41:36;;;;;;;3.95;1.80;;;;;;;;;;4970163;28;20066;-67
2022/01/01 06:44:07;;;;;;;5.43;2.22;;;;;;;;;;4973473;28;20056;-67
2022/01/01 06:46:36;;;;;;;4.25;2.22;;;;;;;;;;4988403;28;20136;-67
2022/01/01 06:49:04;;;;;;;4.07;2.25;;;;;;;;;;4988850;28;20046;-67
2022/01/01 06:51:33;;;;;;;3.60;1.85;;;;;;;;;;4990041;28;20077;-67
2022/01/01 06:54:02;;;;;;;2.83;1.90;;;;;;;;;;4989521;28;20046;-67
2022/01/01 06:56:47;;;;;;;4.30;1.30;;;;;;;;;;820283;28;10003094;-67
2022/01/01 06:59:15;;;;;;;5.15;1.90;;;;;;;;;;4983350;28;20125;-67
2022/01/01 07:01:43;;;;;;;5.90;2.50;;;;;;;;;;4979364;28;20136;-67
2022/01/01 07:04:12;;;;;;;4.90;2.28;;;;;;;;;;4982881;28;20046;-68
2022/01/01 07:06:40;;;;;;;3.65;2.03;;;;;;;;;;4984737;28;20137;-67
2022/01/01 07:09:11;;;;;;;7.22;2.35;;;;;;;;;;4994816;28;20133;-67
2022/01/01 07:11:40;;;;;;;6.15;1.95;;;;;;;;;;4987581;28;20214;-67
2022/01/01 07:14:08;;;;;;;3.72;2.03;;;;;;;;;;4989467;28;20508;-67
2022/01/01 07:16:37;;;;;;;3.95;1.95;;;;;;;;;;4986108;28;20090;-68
2022/01/01 07:19:05;;;;;;;3.75;1.85;;;;;;;;;;4989292;28;20093;-67
2022/01/01 07:21:33;;;;;;;4.03;1.80;;;;;;;;;;4988036;28;20088;-67
2022/01/01 07:24:02;;;;;;;3.85;2.00;;;;;;;;;;4987620;28;20070;-67
2022/01/01 07:26:31;;;;;;;7.07;2.00;;;;;;;;;;4989192;28;20141;-67
2022/01/01 07:29:00;;;;;;;3.50;2.08;;;;;;;;;;4989622;28;20046;-66
2022/01/01 07:31:28;;;;;;;3.45;1.77;;;;;;;;;;4989070;28;20439;-66
2022/01/01 07:33:56;;;;;;;3.58;1.95;;;;;;;;;;4992233;28;20042;-66
2022/01/01 07:36:37;;;;;;;4.55;1.90;;;;;;;;;;4993392;28;20546;-67
2022/01/01 07:39:05;;;;;;;4.57;1.90;;;;;;;;;;4994282;28;20074;-67
2022/01/01 07:41:36;;;;;;;4.05;1.95;;;;;;;;;;4993064;28;20558;-66
2022/01/01 07:44:05;;;;;;;4.93;2.17;;;;;;;;;;4989848;28;20136;-67
2022/01/01 07:46:33;;;;;;;5.63;2.03;;;;;;;;;;4992750;28;20136;-67
2022/01/01 07:49:02;;;;;;;4.15;2.13;;;;;;;;;;4984008;28;20073;-67
2022/01/01 07:51:30;;;;;;;5.45;1.80;;;;;;;;;;4991246;28;20149;-67
2022/01/01 07:53:58;;;;;;;4.05;2.03;;;;;;;;;;4993422;28;20121;-67
2022/01/01 07:56:37;;;;;;;5.10;2.25;;;;;;;;;;4992170;28;20748;-66
2022/01/01 07:59:06;;;;;;;4.03;2.08;;;;;;;;;;4992231;28;20043;-67
2022/01/01 08:01:35;;;;;;;6.22;2.00;;;;;;;;;;4991575;28;20117;-68
2022/01/01 08:04:04;;;;;;;3.88;1.88;;;;;;;;;;4991552;28;20108;-66
2022/01/01 08:06:32;;;;;;;3.88;1.60;;;;;;;;;;4992811;28;20050;-66
2022/01/01 08:09:00;;;;;;;4.20;1.83;;;;;;;;;;4991644;28;20051;-67
2022/01/01 08:11:29;;;;;;;4.18;2.00;;;;;;;;;;4992075;28;20046;-67
2022/01/01 08:13:58;;;;;;;3.42;1.45;;;;;;;;;;4992504;28;20109;-67
2022/01/01 08:16:29;;;;;;;3.63;1.75;;;;;;;;;;4992641;28;20050;-67
2022/01/01 08:18:58;;;;;;;4.90;2.00;;;;;;;;;;4992899;28;20464;-67
2022/01/01 08:21:27;;;;;;;3.65;1.95;;;;;;;;;;4991953;28;20394;-67
2022/01/01 08:23:55;;;;;;;4.22;2.00;;;;;;;;;;4990030;28;20418;-67
2022/01/01 08:26:23;;;;;;;5.60;2.00;;;;;;;;;;4988199;28;20047;-67
2022/01/01 08:28:52;;;;;;;4.63;2.22;;;;;;;;;;4992467;28;20509;-66
2022/01/01 08:31:22;;;;;;;4.10;1.85;;;;;;;;;;4992554;28;20078;-66
2022/01/01 08:33:50;;;;;;;4.88;1.73;;;;;;;;;;4993075;28;20046;-67
2022/01/01 08:36:25;;;;;;;4.38;2.17;;;;;;;;;;4992007;28;20566;-67
2022/01/01 08:38:53;;;;;;;;;;;;;;;;;;4991313;28;20481;-66
2022/01/01 08:41:42;;;;;;;3.33;1.90;;;;;;;;;;4990119;28;19975;-66
2022/01/01 08:44:10;;;;;;;3.40;1.83;;;;;;;;;;4988900;28;20153;-67
2022/01/01 08:46:40;;;;;;;3.40;1.70;;;;;;;;;;4987468;28;20077;-66
2022/01/01 08:49:09;;;;;;;4.18;2.15;;;;;;;;;;4990937;28;20053;-66
2022/01/01 08:51:55;;;;;;;6.75;2.28;;;;;;;;;;4989647;28;20109;-67
2022/01/01 08:54:24;;;;;;;3.55;1.80;;;;;;;;;;4988024;28;20081;-67
2022/01/01 08:56:52;;;;;;;4.18;1.95;;;;;;;;;;4987655;28;20495;-67
2022/01/01 08:59:21;;;;;;;5.10;1.70;;;;;;;;;;4986264;28;20042;-67
2022/01/01 09:01:50;;;;;;;3.47;1.95;;;;;;;;;;4986599;28;20161;-68
2022/01/01 09:04:19;;;;;;;4.03;1.98;;;;;;;;;;4987532;28;20137;-67
2022/01/01 09:06:47;;;;;;;3.35;2.25;;;;;;;;;;4988228;28;20050;-68
2022/01/01 09:09:16;;;;;;;4.32;2.30;;;;;;;;;;4987857;28;20077;-67
2022/01/01 09:11:44;;;;;;;6.22;2.58;;;;;;;;;;4988229;28;20158;-66
2022/01/01 09:14:13;;;;;;;3.88;2.35;;;;;;;;;;4987201;28;20502;-67
2022/01/01 09:16:41;;;;;;;3.85;1.90;;;;;;;;;;4986652;28;20145;-68
2022/01/01 09:19:11;;;;;;;6.80;2.50;;;;;;;;;;4988502;28;20081;-66
2022/01/01 09:21:39;;;;;;;3.97;1.88;;;;;;;;;;4987039;28;20093;-68
2022/01/01 09:24:07;;;;;;;5.68;2.63;;;;;;;;;;4985975;28;20141;-67
2022/01/01 09:26:36;;;;;;;4.15;2.22;;;;;;;;;;4987271;28;20132;-67
2022/01/01 09:29:06;;;;;;;5.13;2.58;;;;;;;;;;4988704;28;20141;-67
2022/01/01 09:31:34;;;;;;;6.15;2.70;;;;;;;;;;4982078;28;20490;-68
2022/01/01 09:34:03;;;;;;;5.28;2.60;;;;;;;;;;4977764;28;20333;-67
2022/01/01 09:36:33;;;;;;;6.88;2.80;;;;;;;;;;4987086;28;20050;-67
2022/01/01 09:39:03;;;;;;;6.50;2.90;;;;;;;;;;4987755;28;20145;-67
2022/01/01 09:41:59;;;;;;;3.60;2.08;;;;;;;;;;4985950;28;20569;-67
2022/01/01 09:44:28;;;;;;;4.95;2.20;;;;;;;;;;4986054;28;20054;-66
2022/01/01 09:46:58;;;;;;;5.28;2.33;;;;;;;;;;4987213;28;20065;-67
2022/01/01 09:49:35;;;;;;;5.80;2.60;;;;;;;;;;1591930;28;10022823;-68
2022/01/01 09:52:06;;;;;;;6.30;2.20;;;;;;;;;;3969179;28;10001681;-67
2022/01/01 09:54:34;;;;;;;4.25;2.22;;;;;;;;;;4978585;28;20101;-67
2022/01/01 09:57:02;;;;;;;5.60;2.13;;;;;;;;;;4982978;28;20379;-67
2022/01/01 09:59:31;;;;;;;4.93;2.20;;;;;;;;;;4985996;28;20107;-66
2022/01/01 10:01:59;;;;;;;4.30;2.28;;;;;;;;;;4986232;28;20100;-66
2022/01/01 10:04:33;;;;;;;6.45;2.83;;;;;;;;;;4981561;28;20066;-67
2022/01/01 10:07:02;;;;;;;3.30;2.20;;;;;;;;;;4982446;28;20453;-67
2022/01/01 10:09:33;;;;;;;5.93;2.38;;;;;;;;;;4983005;28;20141;-68
2022/01/01 10:12:01;;;;;;;6.53;2.80;;;;;;;;;;4983548;28;20061;-68
2022/01/01 10:14:38;;;;;;;5.35;2.30;;;;;;;;;;4985532;28;20180;-67
2022/01/01 10:17:14;;;;;;;5.35;2.75;;;;;;;;;;4984244;28;20268;-68
2022/01/01 10:19:43;;;;;;;5.40;2.47;;;;;;;;;;4986568;28;20054;-67
2022/01/01 10:22:14;;;;;;;4.43;2.35;;;;;;;;;;4986061;28;20493;-67
2022/01/01 10:27:45;;;;;;;3.70;2.08;;;;;;;;;;4986936;28;20532;-68
2022/01/01 10:30:24;;;;;;;5.65;2.15;;;;;;;;;;4985872;28;20050;-67
2022/01/01 10:33:02;;;;;;;4.57;2.25;;;;;;;;;;4985118;28;20172;-67
2022/01/01 10:35:36;;;;;;;5.35;2.47;;;;;;;;;;4986009;28;20046;-67
2022/01/01 10:38:05;;;;;;;4.03;2.05;;;;;;;;;;4985958;28;20052;-68
2022/01/01 10:40:34;;;;;;;5.45;2.03;;;;;;;;;;4983027;28;20594;-67
2022/01/01 10:43:03;;;;;;;6.72;1.98;;;;;;;;;;4984181;28;20816;-67
2022/01/01 10:45:36;;;;;;;3.58;1.98;;;;;;;;;;4985951;28;20141;-67
2022/01/01 10:48:17;;;;;;;6.18;2.35;;;;;;;;;;4986373;28;20133;-67
2022/01/01 10:50:47;;;;;;;5.88;2.10;;;;;;;;;;4987064;28;20042;-67
2022/01/01 10:53:16;;;;;;;4.80;2.00;;;;;;;;;;4986397;28;20141;-67
2022/01/01 10:55:47;;;;;;;3.78;1.60;;;;;;;;;;4986376;28;20089;-67
2022/01/01 10:58:19;;;;;;;4.57;1.65;;;;;;;;;;4983370;28;20575;-67
2022/01/01 11:00:48;;;;;;;3.13;1.65;;;;;;;;;;4985051;28;20125;-68
2022/01/01 11:03:18;;;;;;;5.80;2.08;;;;;;;;;;4986787;28;20054;-67
2022/01/01 11:06:21;;;;;;;2.03;1.45;;;;;;;;;;1158537;28;10023543;-68
2022/01/01 11:08:50;;;;;;;3.88;1.90;;;;;;;;;;4640566;28;10001373;-67
2022/01/01 11:11:26;;;;;;;4.00;1.73;;;;;;;;;;4982698;28;20064;-68
2022/01/01 11:13:55;;;;;;;3.28;1.75;;;;;;;;;;4986286;28;20125;-68
2022/01/01 11:16:24;;;;;;;4.68;1.70;;;;;;;;;;4985811;28;20140;-67
2022/01/01 11:18:54;;;;;;;6.10;2.83;;;;;;;;;;4985975;28;20051;-68
2022/01/01 11:21:31;;;;;;;5.05;1.90;;;;;;;;;;4983354;28;20477;-68
2022/01/01 11:23:59;;;;;;;4.25;1.83;;;;;;;;;;4982253;28;20133;-68
2022/01/01 11:26:29;;;;;;;3.45;1.70;;;;;;;;;;4977244;28;20145;-68
2022/01/01 11:28:59;;;;;;;4.38;1.60;;;;;;;;;;4981901;28;20046;-68
2022/01/01 11:31:27;;;;;;;5.95;1.80;;;;;;;;;;4980620;28;20150;-69
2022/01/01 11:34:00;;;;;;;4.15;1.77;;;;;;;;;;4982786;28;20054;-68
2022/01/01 11:36:50;;;;;;;4.20;1.75;;;;;;;;;;4979401;28;20046;-68
2022/01/01 11:39:22;;;;;;;2.45;1.60;;;;;;;;;;4982905;28;20639;-67
2022/01/01 11:41:52;;;;;;;4.72;1.40;;;;;;;;;;4982205;28;20052;-68
2022/01/01 11:44:27;;;;;;;3.20;1.52;;;;;;;;;;4982607;28;20059;-68
2022/01/01 11:46:59;;;;;;;3.45;1.80;;;;;;;;;;4982659;28;20422;-68
2022/01/01 11:49:29;;;;;;;3.38;1.45;;;;;;;;;;4982554;28;20068;-68
2022/01/01 11:52:31;;;;;;;3.03;1.63;;;;;;;;;;4982567;28;20047;-68
2022/01/01 11:55:00;;;;;;;2.92;1.50;;;;;;;;;;4982255;28;20136;-68
2022/01/01 11:57:31;;;;;;;2.88;1.27;;;;;;;;;;4985705;28;20399;-68
2022/01/01 12:00:02;;;;;;;2.85;1.10;;;;;;;;;;4985435;28;20064;-68
2022/01/01 12:02:35;;;;;;;3.60;1.60;;;;;;;;;;4984958;28;20280;-68
2022/01/01 12:05:10;;;;;;;5.18;1.60;;;;;;;;;;4985685;28;20050;-68
2022/01/01 12:11:11;;;;;;;2.95;1.20;;;;;;;;;;4985268;28;20622;-68
2022/01/01 12:13:41;;;;;;;4.68;2.00;;;;;;;;;;4984219;28;20066;-68
2022/01/01 12:16:21;;;;;;;5.20;1.58;;;;;;;;;;4975553;28;20042;-67
2022/01/01 12:18:50;;;;;;;2.13;1.35;;;;;;;;;;4986662;28;20054;-68
2022/01/01 12:21:24;;;;;;;3.63;1.60;;;;;;;;;;4988141;28;20053;-68
2022/01/01 12:23:54;;;;;;;2.67;1.30;;;;;;;;;;4977182;28;20052;-68
2022/01/01 12:26:31;;;;;;;4.32;1.65;;;;;;;;;;4988551;28;20046;-68
2022/01/01 12:29:03;;;;;;;4.13;1.80;;;;;;;;;;4988667;28;20161;-68
2022/01/01 12:31:32;;;;;;;2.45;1.40;;;;;;;;;;4989046;28;20120;-68
2022/01/01 12:34:09;;;;;;;4.05;1.60;;;;;;;;;;4988445;28;20050;-69
2022/01/01 12:36:41;;;;;;;3.35;1.45;;;;;;;;;;4988646;28;20125;-68
2022/01/01 12:39:10;;;;;;;3.65;1.50;;;;;;;;;;4989141;28;20068;-69
2022/01/01 12:41:40;;;;;;;2.78;1.60;;;;;;;;;;4987269;28;20549;-68
2022/01/01 12:44:11;;;;;;;3.63;1.98;;;;;;;;;;4988030;28;20058;-68
2022/01/01 12:46:41;;;;;;;3.85;1.40;;;;;;;;;;324219;28;10021921;-68
2022/01/01 12:49:10;;;;;;;3.70;1.27;;;;;;;;;;4986057;28;20319;-68
2022/01/01 12:51:39;;;;;;;3.88;1.80;;;;;;;;;;4988028;28;20082;-68
2022/01/01 12:54:08;;;;;;;3.55;1.50;;;;;;;;;;4987077;28;20092;-68
2022/01/01 12:56:38;;;;;;;2.53;1.33;;;;;;;;;;4987056;28;20498;-68
2022/01/01 12:59:10;;;;;;;2.20;1.60;;;;;;;;;;4987284;28;20521;-69
2022/01/01 13:01:39;;;;;;;3.40;1.45;;;;;;;;;;4988563;28;20494;-68
2022/01/01 13:04:09;;;;;;;4.07;1.65;;;;;;;;;;4982657;28;20468;-68
2022/01/01 13:06:38;;;;;;;4.50;1.45;;;;;;;;;;4984990;28;20474;-68
2022/01/01 13:09:13;;;;;;;2.35;1.05;;;;;;;;;;4984288;28;20063;-68
2022/01/01 13:11:42;;;;;;;1.98;1.20;;;;;;;;;;4988617;28;20058;-69
2022/01/01 13:14:13;;;;;;;2.65;0.80;;;;;;;;;;4985176;28;20085;-69
2022/01/01 13:16:42;;;;;;;1.95;0.90;;;;;;;;;;4987895;28;20082;-68
2022/01/01 13:19:11;;;;;;;2.25;0.90;;;;;;;;;;4987562;28;20054;-69
2022/01/01 13:21:39;;;;;;;2.42;1.17;;;;;;;;;;4983783;28;20221;-68
2022/01/01 13:24:09;;;;;;;1.95;1.05;;;;;;;;;;4985952;28;20105;-68
2022/01/01 13:26:38;;;;;;;3.25;1.17;;;;;;;;;;4988092;28;20077;-68
2022/01/01 13:29:06;;;;;;;2.67;0.98;;;;;;;;;;4987779;28;20125;-68
2022/01/01 13:31:36;;;;;;;0.82;0.63;;;;;;;;;;4980092;28;20524;-68
2022/01/01 13:34:05;;;;;;;2.78;1.15;;;;;;;;;;4985751;28;20074;-68
2022/01/01 13:36:34;;;;;;;2.40;0.90;;;;;;;;;;4987837;28;20078;-68
2022/01/01 13:39:04;;;;;;;1.60;1.00;;;;;;;;;;4977816;28;20069;-69
2022/01/01 13:41:36;;;;;;;3.47;1.63;;;;;;;;;;4983953;28;20054;-68
2022/01/01 13:44:17;;;;;;;3.05;0.93;;;;;;;;;;4987291;28;20501;-68
2022/01/01 13:46:48;;;;;;;5.53;1.20;;;;;;;;;;4983836;28;20130;-70
2022/01/01 13:49:16;;;;;;;4.40;1.17;;;;;;;;;;4986026;28;20145;-68
2022/01/01 13:51:45;;;;;;;4.18;0.98;;;;;;;;;;4986898;28;20073;-68
2022/01/01 13:54:16;;;;;;;1.70;0.93;;;;;;;;;;4986877;28;20070;-68
2022/01/01 13:56:51;;;;;;;2.45;1.27;;;;;;;;;;4988279;28;20046;-69
2022/01/01 13:59:26;;;;;;;1.90;0.80;;;;;;;;;;4982399;28;20675;-68
2022/01/01 14:01:57;;;;;;;1.80;1.10;;;;;;;;;;4987102;28;20057;-68
2022/01/01 14:04:30;;;;;;;1.25;0.88;;;;;;;;;;4985634;28;20137;-69
2022/01/01 14:07:05;;;;;;;2.88;1.02;;;;;;;;;;4985212;28;20125;-68
2022/01/01 14:09:33;;;;;;;3.13;1.10;;;;;;;;;;4986880;28;20092;-68
2022/01/01 14:12:03;;;;;;;4.80;1.33;;;;;;;;;;4987896;28;20133;-69
2022/01/01 14:14:31;;;;;;;2.17;0.90;;;;;;;;;;4980776;28;20137;-69
2022/01/01 14:17:01;;;;;;;2.67;1.00;;;;;;;;;;4985380;28;20157;-68
2022/01/01 14:19:34;;;;;;;2.33;1.00;;;;;;;;;;4987756;28;20096;-68
2022/01/01 14:22:09;;;;;;;2.03;0.98;;;;;;;;;;4985292;28;20085;-68
2022/01/01 14:24:49;;;;;;;2.30;1.00;;;;;;;;;;4978982;28;20047;-68
2022/01/01 14:27:18;;;;;;;2.40;1.10;;;;;;;;;;4978726;28;20108;-69
2022/01/01 14:29:46;;;;;;;2.55;1.20;;;;;;;;;;4986879;28;20126;-68
2022/01/01 14:32:17;;;;;;;1.33;0.93;;;;;;;;;;4978285;28;20062;-69
2022/01/01 14:34:47;;;;;;;4.55;1.60;;;;;;;;;;4985744;28;20133;-68
2022/01/01 14:37:16;;;;;;;2.60;1.00;;;;;;;;;;4985907;28;20090;-68
2022/01/01 14:39:45;;;;;;;2.42;1.20;;;;;;;;;;4984636;28;20502;-67
2022/01/01 14:42:14;;;;;;;5.15;1.35;;;;;;;;;;4947238;28;20062;-69
2022/01/01 14:44:42;;;;;;;1.28;0.80;;;;;;;;;;312143;28;10021933;-69
2022/01/01 14:47:15;;;;;;;2.45;1.13;;;;;;;;;;4988966;28;20109;-68
2022/01/01 14:49:46;;;;;;;3.72;1.02;;;;;;;;;;4987137;28;20066;-68
2022/01/01 14:52:16;;;;;;;4.70;1.85;;;;;;;;;;4987195;28;20068;-68
2022/01/01 14:54:49;;;;;;;1.98;1.13;;;;;;;;;;4989130;28;20099;-68
2022/01/01 14:57:19;;;;;;;4.57;1.10;;;;;;;;;;4985731;28;20185;-68
2022/01/01 14:59:48;;;;;;;3.63;1.25;;;;;;;;;;4987522;28;20125;-68
2022/01/01 15:02:17;;;;;;;1.83;0.93;;;;;;;;;;4988817;28;20737;-69
2022/01/01 15:04:47;;;;;;;3.60;1.10;;;;;;;;;;4989141;28;20048;-68
2022/01/01 15:07:16;;;;;;;3.17;1.33;;;;;;;;;;4989373;28;20048;-69
2022/01/01 15:09:48;;;;;;;2.22;1.17;;;;;;;;;;4988522;28;20054;-69